createdAt,value
2017-10-30T00:00:06.372Z,4.31
2017-10-30T00:01:18.673Z,4.31
2017-10-30T00:02:30.966Z,4.31
2017-10-30T00:03:43.279Z,4.32
2017-10-30T00:04:55.536Z,4.25
2017-10-30T00:06:07.513Z,4.32
2017-10-30T00:07:20.124Z,4.32
2017-10-30T00:08:32.397Z,4.38
2017-10-30T00:09:44.694Z,4.32
2017-10-30T00:10:56.989Z,4.32
2017-10-30T00:12:09.606Z,4.27
2017-10-30T00:13:22.206Z,4.36
2017-10-30T00:14:34.851Z,4.3
2017-10-30T00:15:47.436Z,4.34
2017-10-30T00:16:59.719Z,4.32
2017-10-30T00:18:12.309Z,4.28
2017-10-30T00:19:24.933Z,4.38
2017-10-30T00:20:37.550Z,4.39
2017-10-30T00:21:49.820Z,4.31
2017-10-30T00:23:02.067Z,4.36
2017-10-30T00:24:14.689Z,4.39
2017-10-30T00:25:27.304Z,4.32
2017-10-30T00:26:39.924Z,4.39
2017-10-30T00:27:52.524Z,4.3
2017-10-30T00:29:04.523Z,4.39
2017-10-30T00:30:16.834Z,4.39
2017-10-30T00:31:29.453Z,4.39
2017-10-30T00:32:41.404Z,4.36
2017-10-30T00:33:53.379Z,4.4
2017-10-30T00:35:06.014Z,4.4
2017-10-30T00:36:18.586Z,4.42
2017-10-30T00:37:31.189Z,4.42
2017-10-30T00:38:43.788Z,4.39
2017-10-30T00:39:56.064Z,4.46
2017-10-30T00:41:08.680Z,4.46
2017-10-30T00:42:21.300Z,4.48
2017-10-30T00:43:33.918Z,4.45
2017-10-30T00:44:46.193Z,4.48
2017-10-30T00:45:58.792Z,4.46
2017-10-30T00:47:11.080Z,4.49
2017-10-30T00:48:23.032Z,4.57
2017-10-30T00:49:35.325Z,4.53
2017-10-30T00:50:47.959Z,4.53
2017-10-30T00:51:59.913Z,4.53
2017-10-30T00:53:11.893Z,4.58
2017-10-30T00:54:24.172Z,4.53
2017-10-30T00:55:36.777Z,4.61
2017-10-30T00:56:49.393Z,4.63
2017-10-30T00:58:01.669Z,4.6
2017-10-30T00:59:14.285Z,4.58
2017-10-30T01:00:26.907Z,4.61
2017-10-30T01:01:39.174Z,4.61
2017-10-30T01:02:51.776Z,4.66
2017-10-30T01:04:04.363Z,4.64
2017-10-30T01:05:15.693Z,4.66
2017-10-30T01:06:28.303Z,4.63
2017-10-30T01:07:40.907Z,4.6
2017-10-30T01:08:53.222Z,4.61
2017-10-30T01:10:05.839Z,4.58
2017-10-30T01:11:18.418Z,4.56
2017-10-30T01:12:30.697Z,4.49
2017-10-30T01:13:43.284Z,4.48
2017-10-30T01:14:55.895Z,4.48
2017-10-30T01:16:08.176Z,4.6
2017-10-30T01:17:20.779Z,4.49
2017-10-30T01:18:33.387Z,4.53
2017-10-30T01:19:45.911Z,4.5
2017-10-30T01:20:57.244Z,4.5
2017-10-30T01:22:09.833Z,4.49
2017-10-30T01:23:22.458Z,4.53
2017-10-30T01:24:35.065Z,4.53
2017-10-30T01:25:47.692Z,4.48
2017-10-30T01:26:59.984Z,4.46
2017-10-30T01:28:12.588Z,4.42
2017-10-30T01:29:24.531Z,4.46
2017-10-30T01:30:36.827Z,4.46
2017-10-30T01:31:49.487Z,4.4
2017-10-30T01:33:01.789Z,4.4
2017-10-30T01:34:14.402Z,4.38
2017-10-30T01:35:27.009Z,4.4
2017-10-30T01:36:39.351Z,4.42
2017-10-30T01:37:51.993Z,4.39
2017-10-30T01:39:04.285Z,4.43
2017-10-30T01:40:16.873Z,4.39
2017-10-30T01:41:29.496Z,4.3
2017-10-30T01:42:42.100Z,4.38
2017-10-30T01:43:54.696Z,4.3
2017-10-30T01:45:06.999Z,4.38
2017-10-30T01:46:19.595Z,4.31
2017-10-30T01:47:31.867Z,4.4
2017-10-30T01:48:44.464Z,4.43
2017-10-30T01:49:56.753Z,4.39
2017-10-30T01:51:09.052Z,4.4
2017-10-30T01:52:21.345Z,4.39
2017-10-30T01:53:33.965Z,4.34
2017-10-30T01:54:46.587Z,4.4
2017-10-30T01:55:59.174Z,4.39
2017-10-30T01:57:11.777Z,4.36
2017-10-30T01:58:23.724Z,4.43
2017-10-30T01:59:35.997Z,4.39
2017-10-30T02:00:48.284Z,4.4
2017-10-30T02:02:00.564Z,4.46
2017-10-30T02:03:12.859Z,4.42
2017-10-30T02:04:25.150Z,4.4
2017-10-30T02:05:37.399Z,4.43
2017-10-30T02:06:49.984Z,4.38
2017-10-30T02:08:02.567Z,4.43
2017-10-30T02:09:15.106Z,4.43
2017-10-30T02:10:27.710Z,4.4
2017-10-30T02:11:39.984Z,4.4
2017-10-30T02:12:52.296Z,4.45
2017-10-30T02:14:04.566Z,4.49
2017-10-30T02:15:17.165Z,4.46
2017-10-30T02:16:29.149Z,4.48
2017-10-30T02:17:41.400Z,4.5
2017-10-30T02:18:53.676Z,4.56
2017-10-30T02:20:05.965Z,4.53
2017-10-30T02:21:18.221Z,4.52
2017-10-30T02:22:30.839Z,4.5
2017-10-30T02:23:43.460Z,4.56
2017-10-30T02:24:56.054Z,4.57
2017-10-30T02:26:08.326Z,4.6
2017-10-30T02:27:20.940Z,4.49
2017-10-30T02:28:33.564Z,4.53
2017-10-30T02:29:45.859Z,4.58
2017-10-30T02:30:58.463Z,4.58
2017-10-30T02:32:10.477Z,4.6
2017-10-30T02:33:23.102Z,4.5
2017-10-30T02:34:35.691Z,4.57
2017-10-30T02:35:48.289Z,4.52
2017-10-30T02:37:00.894Z,4.52
2017-10-30T02:38:13.197Z,4.57
2017-10-30T02:39:25.781Z,4.56
2017-10-30T02:40:38.079Z,4.56
2017-10-30T02:41:50.684Z,4.56
2017-10-30T02:43:03.289Z,4.61
2017-10-30T02:44:15.602Z,4.58
2017-10-30T02:45:27.878Z,4.57
2017-10-30T02:46:40.475Z,4.58
2017-10-30T02:47:53.086Z,4.57
2017-10-30T02:49:05.360Z,4.6
2017-10-30T02:50:17.668Z,4.57
2017-10-30T02:51:29.936Z,4.58
2017-10-30T02:52:42.532Z,4.5
2017-10-30T02:53:55.169Z,4.56
2017-10-30T02:55:07.444Z,4.5
2017-10-30T02:56:20.038Z,4.53
2017-10-30T02:57:32.939Z,4.53
2017-10-30T02:58:45.557Z,4.5
2017-10-30T02:59:57.826Z,4.45
2017-10-30T03:01:10.096Z,4.48
2017-10-30T03:02:22.363Z,4.48
2017-10-30T03:03:34.666Z,4.48
2017-10-30T03:04:47.287Z,4.46
2017-10-30T03:05:59.919Z,4.45
2017-10-30T03:07:12.499Z,4.4
2017-10-30T03:08:25.075Z,4.46
2017-10-30T03:09:37.711Z,4.45
2017-10-30T03:10:50.329Z,4.48
2017-10-30T03:12:02.633Z,4.45
2017-10-30T03:13:15.234Z,4.38
2017-10-30T03:14:27.830Z,4.45
2017-10-30T03:15:40.151Z,4.42
2017-10-30T03:16:52.765Z,4.42
2017-10-30T03:18:05.057Z,4.42
2017-10-30T03:19:17.673Z,4.32
2017-10-30T03:20:30.294Z,4.4
2017-10-30T03:21:42.564Z,4.46
2017-10-30T03:22:54.823Z,4.4
2017-10-30T03:24:07.110Z,4.38
2017-10-30T03:25:19.735Z,4.42
2017-10-30T03:26:32.326Z,4.39
2017-10-30T03:27:44.982Z,4.38
2017-10-30T03:28:57.591Z,4.32
2017-10-30T03:30:10.444Z,4.3
2017-10-30T03:31:22.716Z,4.38
2017-10-30T03:32:35.026Z,4.32
2017-10-30T03:33:46.978Z,4.31
2017-10-30T03:34:59.579Z,4.39
2017-10-30T03:36:12.198Z,4.39
2017-10-30T03:37:24.465Z,4.32
2017-10-30T03:38:36.765Z,4.32
2017-10-30T03:39:49.349Z,4.3
2017-10-30T03:41:01.949Z,4.39
2017-10-30T03:42:14.573Z,4.4
2017-10-30T03:43:27.179Z,4.43
2017-10-30T03:44:39.816Z,4.42
2017-10-30T03:45:52.113Z,4.43
2017-10-30T03:47:04.076Z,4.5
2017-10-30T03:48:16.354Z,4.48
2017-10-30T03:49:28.648Z,4.53
2017-10-30T03:50:40.920Z,4.53
2017-10-30T03:51:53.530Z,4.57
2017-10-30T03:53:05.476Z,4.58
2017-10-30T03:54:18.033Z,4.63
2017-10-30T03:55:29.978Z,4.64
2017-10-30T03:56:42.245Z,4.56
2017-10-30T03:57:54.870Z,4.58
2017-10-30T03:59:07.488Z,4.58
2017-10-30T04:00:19.476Z,4.64
2017-10-30T04:01:32.084Z,4.61
2017-10-30T04:02:44.677Z,4.63
2017-10-30T04:03:57.294Z,4.58
2017-10-30T04:05:09.891Z,4.57
2017-10-30T04:06:22.164Z,4.52
2017-10-30T04:07:34.777Z,4.56
2017-10-30T04:08:47.383Z,4.5
2017-10-30T04:09:59.665Z,4.5
2017-10-30T04:11:12.274Z,4.53
2017-10-30T04:12:24.892Z,4.52
2017-10-30T04:13:37.511Z,4.57
2017-10-30T04:14:50.123Z,4.48
2017-10-30T04:16:02.730Z,4.57
2017-10-30T04:17:15.023Z,4.58
2017-10-30T04:18:27.003Z,4.61
2017-10-30T04:19:39.605Z,4.64
2017-10-30T04:20:51.214Z,4.58
2017-10-30T04:22:03.481Z,4.58
2017-10-30T04:23:16.084Z,4.7
2017-10-30T04:24:28.667Z,4.67
2017-10-30T04:25:41.309Z,4.7
2017-10-30T04:26:53.897Z,4.76
2017-10-30T04:28:05.862Z,4.75
2017-10-30T04:29:18.131Z,4.78
2017-10-30T04:30:30.400Z,4.79
2017-10-30T04:31:43.050Z,4.83
2017-10-30T04:32:55.651Z,4.89
2017-10-30T04:34:07.940Z,4.94
2017-10-30T04:35:20.552Z,4.95
2017-10-30T04:36:33.179Z,4.94
2017-10-30T04:37:45.469Z,4.98
2017-10-30T04:38:57.768Z,4.9
2017-10-30T04:40:10.048Z,4.95
2017-10-30T04:41:22.334Z,4.98
2017-10-30T04:42:34.910Z,4.9
2017-10-30T04:43:47.543Z,4.92
2017-10-30T04:45:00.126Z,4.92
2017-10-30T04:46:12.398Z,4.92
2017-10-30T04:47:25.008Z,4.92
2017-10-30T04:48:37.613Z,4.9
2017-10-30T04:49:50.208Z,4.9
2017-10-30T04:51:02.800Z,4.95
2017-10-30T04:52:15.422Z,4.97
2017-10-30T04:53:28.026Z,4.92
2017-10-30T04:54:40.617Z,4.97
2017-10-30T04:55:53.211Z,4.89
2017-10-30T04:57:05.819Z,4.89
2017-10-30T04:58:18.123Z,4.82
2017-10-30T04:59:30.747Z,4.89
2017-10-30T05:00:43.014Z,4.92
2017-10-30T05:01:55.607Z,4.86
2017-10-30T05:03:08.451Z,4.79
2017-10-30T05:04:20.731Z,4.76
2017-10-30T05:05:33.351Z,4.71
2017-10-30T05:06:45.971Z,4.7
2017-10-30T05:07:58.563Z,4.71
2017-10-30T05:09:11.183Z,4.76
2017-10-30T05:10:23.810Z,4.67
2017-10-30T05:11:36.403Z,4.6
2017-10-30T05:12:48.716Z,4.58
2017-10-30T05:14:01.340Z,4.63
2017-10-30T05:15:13.980Z,4.64
2017-10-30T05:16:26.604Z,4.6
2017-10-30T05:17:37.931Z,4.53
2017-10-30T05:18:50.235Z,4.5
2017-10-30T05:20:02.874Z,4.57
2017-10-30T05:21:15.494Z,4.5
2017-10-30T05:22:28.085Z,4.46
2017-10-30T05:23:40.361Z,4.4
2017-10-30T05:24:52.981Z,4.42
2017-10-30T05:26:05.590Z,4.42
2017-10-30T05:27:17.872Z,4.3
2017-10-30T05:28:30.463Z,4.34
2017-10-30T05:29:43.038Z,4.32
2017-10-30T05:30:55.658Z,4.31
2017-10-30T05:32:08.255Z,4.3
2017-10-30T05:33:20.867Z,4.27
2017-10-30T05:34:33.138Z,4.25
2017-10-30T05:35:45.759Z,4.25
2017-10-30T05:36:58.365Z,4.31
2017-10-30T05:38:11.009Z,4.27
2017-10-30T05:39:22.968Z,4.28
2017-10-30T05:40:35.542Z,4.28
2017-10-30T05:41:47.858Z,4.22
2017-10-30T05:43:00.466Z,4.22
2017-10-30T05:44:12.765Z,4.22
2017-10-30T05:45:25.357Z,4.2
2017-10-30T05:46:37.959Z,4.21
2017-10-30T05:47:50.248Z,4.12
2017-10-30T05:49:02.520Z,4.12
2017-10-30T05:50:14.792Z,4.07
2017-10-30T05:51:27.063Z,4.04
2017-10-30T05:52:39.657Z,4.03
2017-10-30T05:53:52.275Z,4.06
2017-10-30T05:55:04.887Z,4.06
2017-10-30T05:56:17.192Z,4.09
2017-10-30T05:57:29.486Z,4.1
2017-10-30T05:58:41.459Z,4
2017-10-30T05:59:53.755Z,4.04
2017-10-30T06:01:06.028Z,3.99
2017-10-30T06:02:18.651Z,4
2017-10-30T06:03:31.238Z,3.99
2017-10-30T06:04:43.879Z,3.92
2017-10-30T06:05:56.183Z,3.91
2017-10-30T06:07:08.154Z,3.99
2017-10-30T06:08:20.730Z,3.94
2017-10-30T06:09:33.326Z,3.89
2017-10-30T06:10:45.953Z,3.89
2017-10-30T06:11:58.557Z,3.89
2017-10-30T06:13:10.831Z,3.92
2017-10-30T06:14:23.424Z,3.92
2017-10-30T06:15:36.038Z,3.86
2017-10-30T06:16:48.319Z,3.89
2017-10-30T06:18:00.926Z,3.88
2017-10-30T06:19:13.552Z,3.95
2017-10-30T06:20:26.177Z,3.92
2017-10-30T06:21:38.801Z,3.94
2017-10-30T06:22:50.786Z,3.91
2017-10-30T06:24:03.063Z,3.89
2017-10-30T06:25:15.378Z,3.91
2017-10-30T06:26:27.997Z,3.89
2017-10-30T06:27:40.275Z,3.92
2017-10-30T06:28:52.928Z,3.89
2017-10-30T06:30:05.218Z,3.92
2017-10-30T06:31:17.492Z,3.89
2017-10-30T06:32:29.800Z,4.07
2017-10-30T06:33:42.104Z,4.02
2017-10-30T06:34:54.705Z,4.03
2017-10-30T06:36:06.971Z,4.03
2017-10-30T06:37:19.241Z,4
2017-10-30T06:38:31.512Z,3.99
2017-10-30T06:39:43.758Z,4.06
2017-10-30T06:40:56.028Z,4.02
2017-10-30T06:42:08.641Z,4.04
2017-10-30T06:43:21.277Z,4.09
2017-10-30T06:44:33.865Z,4.04
2017-10-30T06:45:46.440Z,4.06
2017-10-30T06:46:59.084Z,4.04
2017-10-30T06:48:11.682Z,4.13
2017-10-30T06:49:24.316Z,4.06
2017-10-30T06:50:36.894Z,4.13
2017-10-30T06:51:49.512Z,4.12
2017-10-30T06:53:02.109Z,4.2
2017-10-30T06:54:14.706Z,4.16
2017-10-30T06:55:27.310Z,4.07
2017-10-30T06:56:39.274Z,4.13
2017-10-30T06:57:51.892Z,4.14
2017-10-30T06:59:04.516Z,4.2
2017-10-30T07:00:17.117Z,4.2
2017-10-30T07:01:29.380Z,4.25
2017-10-30T07:02:42.004Z,4.24
2017-10-30T07:03:54.620Z,4.22
2017-10-30T07:05:07.237Z,4.24
2017-10-30T07:06:19.864Z,4.3
2017-10-30T07:07:32.753Z,4.24
2017-10-30T07:08:45.028Z,4.21
2017-10-30T07:09:57.628Z,4.36
2017-10-30T07:11:10.245Z,4.36
2017-10-30T07:12:22.815Z,4.3
2017-10-30T07:13:34.465Z,4.32
2017-10-30T07:14:47.062Z,4.36
2017-10-30T07:15:59.355Z,4.32
2017-10-30T07:17:11.652Z,4.43
2017-10-30T07:18:24.535Z,4.43
2017-10-30T07:19:37.161Z,4.39
2017-10-30T07:20:49.451Z,4.45
2017-10-30T07:22:01.739Z,4.42
2017-10-30T07:23:14.357Z,4.46
2017-10-30T07:24:26.649Z,4.48
2017-10-30T07:25:39.259Z,4.49
2017-10-30T07:26:51.816Z,4.48
2017-10-30T07:28:04.128Z,4.52
2017-10-30T07:29:16.750Z,4.53
2017-10-30T07:30:29.043Z,4.5
2017-10-30T07:31:41.361Z,4.56
2017-10-30T07:32:53.970Z,4.5
2017-10-30T07:34:06.606Z,4.61
2017-10-30T07:35:19.233Z,4.6
2017-10-30T07:36:31.862Z,4.64
2017-10-30T07:37:44.133Z,4.64
2017-10-30T07:38:56.723Z,4.6
2017-10-30T07:40:09.315Z,4.66
2017-10-30T07:41:21.939Z,4.74
2017-10-30T07:42:34.249Z,4.74
2017-10-30T07:43:46.530Z,4.79
2017-10-30T07:44:59.165Z,4.75
2017-10-30T07:46:11.785Z,4.7
2017-10-30T07:47:24.407Z,4.79
2017-10-30T07:48:37.036Z,4.92
2017-10-30T07:49:49.656Z,4.84
2017-10-30T07:51:02.255Z,4.89
2017-10-30T07:52:14.224Z,4.9
2017-10-30T07:53:26.838Z,4.94
2017-10-30T07:54:39.478Z,4.89
2017-10-30T07:55:51.761Z,4.98
2017-10-30T07:57:04.386Z,4.98
2017-10-30T07:58:16.670Z,4.97
2017-10-30T07:59:29.297Z,5.02
2017-10-30T08:00:41.618Z,5.01
2017-10-30T08:01:54.139Z,5.02
2017-10-30T08:03:06.435Z,5.05
2017-10-30T08:04:19.053Z,5.07
2017-10-30T08:05:31.668Z,5.18
2017-10-30T08:06:43.973Z,5.1
2017-10-30T08:07:56.267Z,5.16
2017-10-30T08:09:08.863Z,5.16
2017-10-30T08:10:21.473Z,5.26
2017-10-30T08:11:34.060Z,5.29
2017-10-30T08:12:46.675Z,5.22
2017-10-30T08:13:59.276Z,5.31
2017-10-30T08:15:11.933Z,5.23
2017-10-30T08:16:24.526Z,5.31
2017-10-30T08:17:37.104Z,5.31
2017-10-30T08:18:49.403Z,5.4
2017-10-30T08:20:01.676Z,5.37
2017-10-30T08:21:14.275Z,5.38
2017-10-30T08:22:26.860Z,5.41
2017-10-30T08:23:39.139Z,5.54
2017-10-30T08:24:51.753Z,5.44
2017-10-30T08:26:04.344Z,5.49
2017-10-30T08:27:16.942Z,5.43
2017-10-30T08:28:29.544Z,5.44
2017-10-30T08:29:41.489Z,5.54
2017-10-30T08:30:53.410Z,5.56
2017-10-30T08:32:05.706Z,5.49
2017-10-30T08:33:18.315Z,5.46
2017-10-30T08:34:30.272Z,5.44
2017-10-30T08:35:42.867Z,5.51
2017-10-30T08:36:55.476Z,5.67
2017-10-30T08:38:08.061Z,5.64
2017-10-30T08:39:20.679Z,5.62
2017-10-30T08:40:33.278Z,5.7
2017-10-30T08:41:45.567Z,5.76
2017-10-30T08:42:58.209Z,5.62
2017-10-30T08:44:10.808Z,5.7
2017-10-30T08:45:22.796Z,5.73
2017-10-30T08:46:35.403Z,5.77
2017-10-30T08:47:48.049Z,5.73
2017-10-30T08:49:00.386Z,5.87
2017-10-30T08:50:12.993Z,5.79
2017-10-30T08:51:25.608Z,5.87
2017-10-30T08:52:37.884Z,5.84
2017-10-30T08:53:50.482Z,5.92
2017-10-30T08:55:03.072Z,5.94
2017-10-30T08:56:15.703Z,5.87
2017-10-30T08:57:28.314Z,5.87
2017-10-30T08:58:40.301Z,5.95
2017-10-30T08:59:52.582Z,5.91
2017-10-30T09:01:05.205Z,6.05
2017-10-30T09:02:17.814Z,6.01
2017-10-30T09:03:30.119Z,6.05
2017-10-30T09:04:42.402Z,6.07
2017-10-30T09:05:55.033Z,6.07
2017-10-30T09:07:07.647Z,6.05
2017-10-30T09:08:20.276Z,6.06
2017-10-30T09:09:32.884Z,6.07
2017-10-30T09:10:45.184Z,6.16
2017-10-30T09:11:57.804Z,6.1
2017-10-30T09:13:10.104Z,6.15
2017-10-30T09:14:22.691Z,6.16
2017-10-30T09:15:35.302Z,6.19
2017-10-30T09:16:47.893Z,6.19
2017-10-30T09:18:00.754Z,6.16
2017-10-30T09:19:13.357Z,6.25
2017-10-30T09:20:25.978Z,6.2
2017-10-30T09:21:38.248Z,6.15
2017-10-30T09:22:50.561Z,6.32
2017-10-30T09:24:03.145Z,6.32
2017-10-30T09:25:15.455Z,6.34
2017-10-30T09:26:27.774Z,6.41
2017-10-30T09:27:40.404Z,6.46
2017-10-30T09:28:52.687Z,6.44
2017-10-30T09:30:04.971Z,6.41
2017-10-30T09:31:17.609Z,6.47
2017-10-30T09:32:30.226Z,6.49
2017-10-30T09:33:42.847Z,6.53
2017-10-30T09:34:55.446Z,6.5
2017-10-30T09:36:07.742Z,6.52
2017-10-30T09:37:20.371Z,6.52
2017-10-30T09:38:32.657Z,6.47
2017-10-30T09:39:45.257Z,6.59
2017-10-30T09:40:57.882Z,6.62
2017-10-30T09:42:10.153Z,6.59
2017-10-30T09:43:22.772Z,6.65
2017-10-30T09:44:35.044Z,6.67
2017-10-30T09:45:46.711Z,6.65
2017-10-30T09:46:58.981Z,6.65
2017-10-30T09:48:11.272Z,6.75
2017-10-30T09:49:23.225Z,6.8
2017-10-30T09:50:35.828Z,6.75
2017-10-30T09:51:48.468Z,6.82
2017-10-30T09:53:01.088Z,6.83
2017-10-30T09:54:13.730Z,6.9
2017-10-30T09:55:25.722Z,6.89
2017-10-30T09:56:38.001Z,6.95
2017-10-30T09:57:50.300Z,6.92
2017-10-30T09:59:02.607Z,6.97
2017-10-30T10:00:15.204Z,7
2017-10-30T10:01:28.055Z,7.05
2017-10-30T10:02:40.684Z,7.1
2017-10-30T10:03:53.302Z,7.13
2017-10-30T10:05:05.263Z,7.14
2017-10-30T10:06:17.865Z,7.08
2017-10-30T10:07:30.161Z,7.13
2017-10-30T10:08:42.759Z,7.15
2017-10-30T10:09:55.378Z,7.26
2017-10-30T10:11:07.674Z,7.26
2017-10-30T10:12:19.969Z,7.41
2017-10-30T10:13:32.282Z,7.46
2017-10-30T10:14:44.574Z,7.44
2017-10-30T10:15:56.844Z,7.41
2017-10-30T10:17:09.451Z,7.44
2017-10-30T10:18:22.048Z,7.44
2017-10-30T10:19:34.317Z,7.4
2017-10-30T10:20:46.938Z,7.41
2017-10-30T10:21:59.235Z,7.46
2017-10-30T10:23:11.226Z,7.41
2017-10-30T10:24:23.845Z,7.46
2017-10-30T10:25:36.472Z,7.47
2017-10-30T10:26:49.071Z,7.4
2017-10-30T10:28:01.675Z,7.51
2017-10-30T10:29:14.296Z,7.55
2017-10-30T10:30:26.923Z,7.53
2017-10-30T10:31:38.871Z,7.56
2017-10-30T10:32:50.845Z,7.53
2017-10-30T10:34:03.439Z,7.53
2017-10-30T10:35:15.709Z,7.51
2017-10-30T10:36:28.328Z,7.47
2017-10-30T10:37:40.590Z,7.51
2017-10-30T10:38:53.211Z,7.56
2017-10-30T10:40:05.482Z,7.53
2017-10-30T10:41:18.105Z,7.53
2017-10-30T10:42:30.426Z,7.55
2017-10-30T10:43:42.724Z,7.66
2017-10-30T10:44:55.002Z,7.61
2017-10-30T10:46:07.618Z,7.62
2017-10-30T10:47:19.913Z,7.61
2017-10-30T10:48:32.162Z,7.64
2017-10-30T10:49:44.782Z,7.66
2017-10-30T10:50:57.072Z,7.64
2017-10-30T10:52:09.673Z,7.47
2017-10-30T10:53:22.271Z,7.59
2017-10-30T10:54:34.558Z,7.62
2017-10-30T10:55:47.186Z,7.51
2017-10-30T10:56:59.797Z,7.51
2017-10-30T10:58:12.391Z,7.47
2017-10-30T10:59:24.666Z,7.55
2017-10-30T11:00:36.971Z,7.5
2017-10-30T11:01:49.591Z,7.55
2017-10-30T11:03:01.861Z,7.53
2017-10-30T11:04:14.454Z,7.53
2017-10-30T11:05:27.029Z,7.56
2017-10-30T11:06:39.340Z,7.47
2017-10-30T11:07:52.015Z,7.55
2017-10-30T11:09:03.987Z,7.55
2017-10-30T11:10:16.623Z,7.66
2017-10-30T11:11:29.257Z,7.61
2017-10-30T11:12:41.874Z,7.58
2017-10-30T11:13:54.191Z,7.66
2017-10-30T11:15:06.489Z,7.64
2017-10-30T11:16:19.108Z,7.59
2017-10-30T11:17:32.004Z,7.67
2017-10-30T11:18:44.278Z,7.78
2017-10-30T11:19:56.588Z,7.72
2017-10-30T11:21:09.195Z,7.66
2017-10-30T11:22:21.490Z,7.78
2017-10-30T11:23:34.088Z,7.67
2017-10-30T11:24:46.704Z,7.74
2017-10-30T11:25:59.316Z,7.7
2017-10-30T11:27:10.948Z,7.75
2017-10-30T11:28:23.541Z,7.74
2017-10-30T11:29:36.140Z,7.78
2017-10-30T11:30:48.726Z,7.67
2017-10-30T11:32:01.306Z,7.75
2017-10-30T11:33:13.626Z,7.77
2017-10-30T11:34:26.219Z,7.74
2017-10-30T11:35:38.514Z,7.81
2017-10-30T11:36:51.088Z,7.69
2017-10-30T11:38:03.701Z,7.67
2017-10-30T11:39:16.306Z,7.81
2017-10-30T11:40:28.572Z,7.72
2017-10-30T11:41:41.175Z,7.77
2017-10-30T11:42:53.468Z,7.77
2017-10-30T11:44:06.061Z,7.81
2017-10-30T11:45:18.675Z,7.8
2017-10-30T11:46:31.292Z,7.78
2017-10-30T11:47:43.270Z,7.83
2017-10-30T11:48:55.587Z,7.78
2017-10-30T11:50:07.245Z,7.75
2017-10-30T11:51:19.886Z,7.8
2017-10-30T11:52:32.504Z,7.75
2017-10-30T11:53:45.077Z,7.77
2017-10-30T11:54:57.676Z,7.72
2017-10-30T11:56:09.660Z,7.67
2017-10-30T11:57:22.286Z,7.69
2017-10-30T11:58:34.914Z,7.8
2017-10-30T11:59:47.181Z,7.77
2017-10-30T12:00:59.802Z,7.77
2017-10-30T12:02:12.114Z,7.8
2017-10-30T12:03:24.417Z,7.88
2017-10-30T12:04:36.385Z,7.9
2017-10-30T12:05:48.675Z,7.95
2017-10-30T12:07:01.297Z,7.93
2017-10-30T12:08:13.268Z,7.96
2017-10-30T12:09:25.916Z,7.96
2017-10-30T12:10:38.508Z,7.96
2017-10-30T12:11:50.804Z,8.01
2017-10-30T12:13:03.450Z,7.93
2017-10-30T12:14:15.726Z,7.93
2017-10-30T12:15:27.666Z,7.91
2017-10-30T12:16:39.661Z,7.93
2017-10-30T12:17:52.261Z,7.91
2017-10-30T12:19:04.834Z,7.95
2017-10-30T12:20:17.445Z,7.9
2017-10-30T12:21:29.398Z,7.96
2017-10-30T12:22:41.998Z,8.02
2017-10-30T12:23:54.593Z,8.03
2017-10-30T12:25:06.859Z,8.11
2017-10-30T12:26:19.160Z,8.03
2017-10-30T12:27:31.772Z,8.11
2017-10-30T12:28:44.389Z,8.2
2017-10-30T12:29:56.994Z,8.2
2017-10-30T12:31:09.564Z,8.27
2017-10-30T12:32:22.163Z,8.27
2017-10-30T12:33:34.784Z,8.24
2017-10-30T12:34:47.377Z,8.41
2017-10-30T12:35:59.996Z,8.38
2017-10-30T12:37:11.960Z,8.41
2017-10-30T12:38:24.239Z,8.38
2017-10-30T12:39:37.134Z,8.31
2017-10-30T12:40:49.126Z,8.26
2017-10-30T12:42:01.754Z,8.42
2017-10-30T12:43:14.029Z,8.44
2017-10-30T12:44:26.037Z,8.49
2017-10-30T12:45:38.015Z,8.49
2017-10-30T12:46:50.625Z,8.53
2017-10-30T12:48:02.599Z,8.45
2017-10-30T12:49:15.202Z,8.49
2017-10-30T12:50:27.797Z,8.46
2017-10-30T12:51:40.418Z,8.34
2017-10-30T12:52:52.713Z,8.42
2017-10-30T12:54:05.332Z,8.26
2017-10-30T12:55:17.642Z,8.09
2017-10-30T12:56:30.269Z,8.05
2017-10-30T12:57:42.542Z,7.98
2017-10-30T12:58:55.147Z,7.95
2017-10-30T13:00:07.427Z,7.81
2017-10-30T13:01:19.983Z,7.84
2017-10-30T13:02:32.599Z,7.78
2017-10-30T13:03:44.925Z,7.84
2017-10-30T13:04:56.913Z,7.74
2017-10-30T13:06:09.638Z,7.8
2017-10-30T13:07:22.264Z,7.78
2017-10-30T13:08:34.219Z,7.83
2017-10-30T13:09:46.798Z,7.84
2017-10-30T13:10:59.094Z,7.85
2017-10-30T13:12:11.694Z,7.84
2017-10-30T13:13:23.969Z,7.93
2017-10-30T13:14:36.277Z,7.98
2017-10-30T13:15:48.273Z,7.85
2017-10-30T13:17:00.253Z,7.95
2017-10-30T13:18:12.844Z,7.87
2017-10-30T13:19:25.446Z,7.9
2017-10-30T13:20:38.084Z,7.84
2017-10-30T13:21:50.706Z,7.81
2017-10-30T13:23:02.706Z,7.78
2017-10-30T13:24:15.323Z,7.72
2017-10-30T13:25:27.609Z,7.77
2017-10-30T13:26:39.892Z,7.77
2017-10-30T13:27:52.202Z,7.72
2017-10-30T13:29:04.480Z,7.74
2017-10-30T13:30:17.128Z,7.75
2017-10-30T13:31:29.753Z,7.67
2017-10-30T13:32:42.359Z,7.7
2017-10-30T13:33:54.965Z,7.66
2017-10-30T13:35:07.286Z,7.62
2017-10-30T13:36:19.554Z,7.59
2017-10-30T13:37:32.152Z,7.67
2017-10-30T13:38:45.027Z,7.67
2017-10-30T13:39:57.694Z,7.51
2017-10-30T13:41:09.969Z,7.51
2017-10-30T13:42:22.632Z,7.56
2017-10-30T13:43:34.922Z,7.51
2017-10-30T13:44:47.544Z,7.48
2017-10-30T13:46:00.168Z,7.48
2017-10-30T13:47:12.468Z,7.5
2017-10-30T13:48:25.080Z,7.5
2017-10-30T13:49:37.709Z,7.53
2017-10-30T13:50:49.976Z,7.47
2017-10-30T13:52:02.630Z,7.37
2017-10-30T13:53:14.922Z,7.43
2017-10-30T13:54:27.208Z,7.41
2017-10-30T13:55:39.161Z,7.43
2017-10-30T13:56:51.453Z,7.37
2017-10-30T13:58:04.076Z,7.39
2017-10-30T13:59:16.019Z,7.37
2017-10-30T14:00:28.618Z,7.4
2017-10-30T14:01:40.592Z,7.39
2017-10-30T14:02:52.903Z,7.4
2017-10-30T14:04:05.521Z,7.4
2017-10-30T14:05:18.143Z,7.36
2017-10-30T14:06:30.453Z,7.39
2017-10-30T14:07:43.045Z,7.37
2017-10-30T14:08:55.336Z,7.31
2017-10-30T14:10:07.924Z,7.37
2017-10-30T14:11:20.230Z,7.26
2017-10-30T14:12:32.855Z,7.28
2017-10-30T14:13:45.486Z,7.31
2017-10-30T14:14:57.758Z,7.31
2017-10-30T14:16:10.363Z,7.31
2017-10-30T14:17:22.640Z,7.28
2017-10-30T14:18:34.912Z,7.26
2017-10-30T14:19:47.520Z,7.26
2017-10-30T14:20:59.469Z,7.25
2017-10-30T14:22:11.463Z,7.25
2017-10-30T14:23:24.066Z,7.26
2017-10-30T14:24:36.047Z,7.26
2017-10-30T14:25:48.653Z,7.31
2017-10-30T14:27:00.939Z,7.26
2017-10-30T14:28:13.196Z,7.25
2017-10-30T14:29:25.817Z,7.25
2017-10-30T14:30:38.103Z,7.28
2017-10-30T14:31:50.409Z,7.21
2017-10-30T14:33:03.024Z,7.22
2017-10-30T14:34:15.316Z,7.21
2017-10-30T14:35:27.941Z,7.21
2017-10-30T14:36:40.235Z,7.19
2017-10-30T14:37:52.826Z,7.18
2017-10-30T14:39:05.456Z,7.11
2017-10-30T14:40:18.076Z,7.05
2017-10-30T14:41:30.673Z,7.15
2017-10-30T14:42:42.993Z,7.21
2017-10-30T14:43:55.265Z,7.08
2017-10-30T14:45:07.559Z,7.08
2017-10-30T14:46:20.219Z,7.22
2017-10-30T14:47:32.525Z,7.1
2017-10-30T14:48:45.135Z,7.11
2017-10-30T14:49:57.730Z,7.11
2017-10-30T14:51:10.015Z,7.07
2017-10-30T14:52:22.629Z,7.1
2017-10-30T14:53:34.601Z,7.15
2017-10-30T14:54:46.916Z,7.11
2017-10-30T14:55:59.208Z,7.13
2017-10-30T14:57:11.491Z,7.13
2017-10-30T14:58:24.100Z,7.1
2017-10-30T14:59:36.359Z,7.08
2017-10-30T15:00:49.221Z,7.08
2017-10-30T15:02:01.840Z,7.15
2017-10-30T15:03:14.145Z,7.13
2017-10-30T15:04:26.761Z,7.11
2017-10-30T15:05:39.377Z,7.1
2017-10-30T15:06:51.976Z,7.08
2017-10-30T15:08:04.604Z,7.05
2017-10-30T15:09:17.219Z,7.04
2017-10-30T15:10:29.489Z,7.22
2017-10-30T15:11:42.087Z,7.08
2017-10-30T15:12:54.692Z,7.19
2017-10-30T15:14:06.994Z,7.13
2017-10-30T15:15:19.295Z,7.15
2017-10-30T15:16:31.600Z,7.1
2017-10-30T15:17:43.909Z,7.07
2017-10-30T15:18:56.538Z,7.04
2017-10-30T15:20:09.146Z,7.1
2017-10-30T15:21:21.753Z,7.01
2017-10-30T15:22:34.045Z,7.01
2017-10-30T15:23:46.692Z,6.89
2017-10-30T15:24:58.961Z,6.89
2017-10-30T15:26:11.257Z,6.85
2017-10-30T15:27:23.577Z,6.86
2017-10-30T15:28:35.891Z,6.83
2017-10-30T15:29:48.549Z,6.82
2017-10-30T15:31:01.169Z,6.87
2017-10-30T15:32:13.786Z,6.9
2017-10-30T15:33:26.073Z,6.86
2017-10-30T15:34:38.379Z,6.83
2017-10-30T15:35:50.989Z,6.82
2017-10-30T15:37:03.597Z,6.77
2017-10-30T15:38:15.883Z,6.85
2017-10-30T15:39:28.187Z,6.78
2017-10-30T15:40:40.511Z,6.87
2017-10-30T15:41:53.122Z,6.86
2017-10-30T15:43:05.404Z,6.85
2017-10-30T15:44:18.042Z,6.85
2017-10-30T15:45:30.007Z,6.9
2017-10-30T15:46:42.289Z,6.9
2017-10-30T15:47:54.896Z,6.86
2017-10-30T15:49:07.179Z,6.92
2017-10-30T15:50:19.127Z,6.85
2017-10-30T15:51:31.724Z,6.85
2017-10-30T15:52:43.988Z,6.83
2017-10-30T15:53:56.581Z,6.87
2017-10-30T15:55:08.874Z,6.87
2017-10-30T15:56:21.465Z,6.85
2017-10-30T15:57:34.060Z,6.89
2017-10-30T15:58:46.361Z,6.9
2017-10-30T15:59:58.903Z,6.8
2017-10-30T16:01:11.510Z,6.95
2017-10-30T16:02:24.119Z,6.95
2017-10-30T16:03:36.393Z,6.87
2017-10-30T16:04:48.972Z,6.86
2017-10-30T16:06:01.280Z,6.8
2017-10-30T16:07:13.884Z,6.8
2017-10-30T16:08:26.483Z,6.77